• Join FlightAware (Why Join?)
  • Login
  • US Flag 
08:22AM EDT


 

Airport Tracker/Info


-or-


 

Live Flight TrackerFlight Track Log ✈ BJS542 ✈ 28-Jun-2013 ✈ KASE - KPHX

Flight Track Log - Related Links

Times and Time Zones

All times are in EDT time to prevent confusion due to time zone crossing. See the BJS542 flight status page for this flight to view local times or setup timezone preferences in your user account.

Time Position Orientation Groundspeed Altitude Reporting Facility
EDT Latitude Longitude Course Direction KTS MPH feet Rate Location/Type
02:14PM 39.3022 -107.0247 217° Southwest 279 321 12,400  Level Denver Center
02:15PM 39.3481 -107.1144 303° West 305 351 15,900 2,400 Climbing Denver Center
02:16PM 39.3378 -107.2286 263° West 336 387 17,400 2,040 Climbing Denver Center
02:17PM 39.3231 -107.3775 263° West 368 423 20,200 2,400 Climbing Denver Center
02:18PM 38.7791 -107.2979 217° Southwest  Level Estimated
02:18PM 39.3081 -107.5089 262° West 383 441 22,400  Level Denver Center
02:19PM 38.6904 -107.3832 217° Southwest  Level Estimated
02:19PM 39.2439 -107.6411 238° Southwest 412 474 24,700  Level Denver Center
02:20PM 38.6016 -107.4682 217° Southwest  Level Estimated
02:20PM 39.1328 -107.6836 197° South 436 502 26,200  Level Denver Center
02:21PM 39.0075 -107.7667 207° Southwest 453 521 28,400 1,980 Climbing Denver Center
02:22PM 38.9056 -107.8472 212° Southwest 450 518 30,400 1,980 Climbing Denver Center
02:23PM 38.7883 -107.9431 213° Southwest 447 514 32,600 1,680 Climbing Denver Center
02:25PM 38.6858 -108.0253 212° Southwest 451 519 34,000 660 Climbing Denver Center
02:26PM 38.5817 -108.1097 212° Southwest 459 528 34,000  Level Denver Center
02:27PM 38.4583 -108.2103 213° Southwest 468 539 34,000  Level Denver Center
02:28PM 38.3536 -108.2956 213° Southwest 466 536 34,000  Level Denver Center
02:29PM 38.2317 -108.3947 213° Southwest 465 535 34,000  Level Denver Center
02:30PM 38.1269 -108.4778 212° Southwest 463 533 34,000  Level Denver Center
02:31PM 38.0039 -108.5747 212° Southwest 464 534 34,000 900 Level Denver Center
02:32PM 37.9003 -108.6558 212° Southwest 460 529 35,900 1,860 Climbing Denver Center
02:33PM 37.7797 -108.7492 211° Southwest 457 526 37,900 960 Climbing Denver Center
02:34PM 37.6947 -108.8167 212° Southwest 453 521 38,000  Climbing Denver Center
02:35PM 37.5550 -108.9225 211° Southwest 456 525 38,000  Level Denver Center
02:36PM 37.4681 -108.9903 212° Southwest 458 527 38,000  Level Denver Center
02:37PM 37.3350 -109.0961 212° Southwest 447 514 38,000  Level Denver Center
02:38PM 37.2533 -109.1578 211° Southwest 437 503 38,000  Level Denver Center
02:39PM 37.1431 -109.2431 212° Southwest 429 494 38,000  Level Denver Center
02:40PM 37.0386 -109.3239 212° Southwest 438 504 38,000  Level Denver Center
02:41PM 36.9228 -109.4117 211° Southwest 441 507 38,000  Level Denver Center
02:42PM 36.8056 -109.4994 211° Southwest 447 514 38,000  Level Denver Center
02:43PM 36.7203 -109.5658 212° Southwest 450 518 38,000  Level Denver Center
02:44PM 36.5919 -109.6639 212° Southwest 450 518 38,000 -480 Level Denver Center
02:45PM 36.4831 -109.7456 211° Southwest 455 524 37,100 -1,020 Descending Denver Center
02:46PM 36.3525 -109.8442 211° Southwest 457 526 36,000 -780 Descending Denver Center
02:47PM 36.2436 -109.9267 211° Southwest 457 526 35,500 -780 Descending Denver Center
02:48PM 36.1319 -110.0094 211° Southwest 462 532 34,500 -780 Descending Denver Center
02:49PM 36.0231 -110.0897 211° Southwest 460 529 34,000 -300 Descending Denver Center
02:50PM 35.9133 -110.1703 211° Southwest 458 527 34,000  Level Denver Center
02:51PM 35.8014 -110.2508 210° Southwest 459 528 34,000  Level Denver Center
02:52PM 35.6656 -110.3506 211° Southwest 463 533 34,000 -240 Level Denver Center
02:54PM 35.5522 -110.4336 211° Southwest 467 537 33,500 -1,080 Descending Denver Center
02:55PM 35.4158 -110.5319 210° Southwest 470 541 31,600 -1,680 Descending Denver Center
02:56PM 35.3014 -110.6158 211° Southwest 472 543 30,100 -1,440 Descending Denver Center
02:57PM 35.1531 -110.7272 212° Southwest 479 551 28,500 -1,560 Descending Albuquerque Center
02:58PM 35.0392 -110.8072 210° Southwest 475 547 26,700 -1,560 Descending Albuquerque Center
02:59PM 34.9133 -110.8428 193° South 460 529 25,300 -1,440 Descending Albuquerque Center
03:00PM 34.7928 -110.8786 194° South 450 518 23,800 -1,500 Descending Albuquerque Center
03:01PM 34.6783 -110.9142 194° South 438 504 22,200 -1,200 Descending Albuquerque Center
03:02PM 34.5658 -110.9506 195° South 428 493 21,400 -720 Descending Albuquerque Center
03:03PM 34.4550 -110.9847 194° South 416 479 20,800 -900 Descending Albuquerque Center
03:04PM 34.3203 -111.0250 194° South 414 476 19,600 -1,080 Descending Albuquerque Center
03:05PM 34.2108 -111.0594 195° South 409 471 18,700 -960 Descending Albuquerque Center
03:06PM 34.1256 -111.1397 218° Southwest 392 451 17,700 -780 Descending Albuquerque Center
03:07PM 34.0439 -111.2272 222° Southwest 389 448 17,200 -1,260 Descending Albuquerque Center
03:08PM 33.9608 -111.3186 222° Southwest 398 458 15,200 -2,220 Descending Albuquerque Center
03:09PM 33.8836 -111.4025 222° Southwest 371 427 12,700 -2,160 Descending Albuquerque Center
03:10PM 33.8114 -111.4653 216° Southwest 322 371 10,800 -1,500 Descending Albuquerque Center
03:11PM 33.7497 -111.5203 217° Southwest 279 321 9,700 -1,320 Descending Albuquerque Center
03:12PM 33.6672 -111.5567 200° South 263 303 8,200 -840 Descending Albuquerque Center
03:13PM 33.6008 -111.5747 193° South 246 283 8,000 -540 Descending Albuquerque Center
03:14PM 33.5381 -111.5781 183° South 228 262 7,200 -540 Descending Albuquerque Center
03:15PM 33.4747 -111.5808 182° South 227 261 7,000 -240 Descending Albuquerque Center
03:16PM 33.4361 -111.6264 225° Southwest 216 249 6,800 -780 Descending Albuquerque Center
03:18PM 33.4333 -111.7667 269° West 179 206 4,800 -1,020 Descending Phoenix TRACON
03:19PM 33.4333 -111.8167 270° West 182 209 4,000 -960 Descending Phoenix TRACON
03:20PM 33.4333 -111.8833 270° West 188 216 3,000 -900 Descending Phoenix TRACON
03:21PM 33.4333 -111.9333 270° West 145 167 2,200 -720 Descending Phoenix TRACON
03:22PM 33.4333 -111.9833 270° West 137 158 1,500 -720 Descending Phoenix TRACON